sensor_id;sensor_type;location;lat;lon;timestamp;P1;durP1;ratioP1;P2;durP2;ratioP2
25905;SDS011;13713;52.552;13.204;2024-03-17T00:02:21;8.23;;;3.97;;
25905;SDS011;13713;52.552;13.204;2024-03-17T00:04:47;7.40;;;3.50;;
25905;SDS011;13713;52.552;13.204;2024-03-17T00:07:13;7.10;;;3.72;;
25905;SDS011;13713;52.552;13.204;2024-03-17T00:09:39;8.55;;;3.78;;
25905;SDS011;13713;52.552;13.204;2024-03-17T00:12:06;8.70;;;3.67;;
25905;SDS011;13713;52.552;13.204;2024-03-17T00:14:36;7.25;;;3.30;;
25905;SDS011;13713;52.552;13.204;2024-03-17T00:17:10;5.78;;;3.42;;
25905;SDS011;13713;52.552;13.204;2024-03-17T00:19:36;6.68;;;3.25;;
25905;SDS011;13713;52.552;13.204;2024-03-17T00:22:01;7.30;;;3.30;;
25905;SDS011;13713;52.552;13.204;2024-03-17T00:24:28;8.00;;;3.50;;
25905;SDS011;13713;52.552;13.204;2024-03-17T00:27:00;10.90;;;4.03;;
25905;SDS011;13713;52.552;13.204;2024-03-17T00:29:26;6.25;;;3.70;;
25905;SDS011;13713;52.552;13.204;2024-03-17T00:31:53;7.03;;;3.25;;
25905;SDS011;13713;52.552;13.204;2024-03-17T00:34:19;6.90;;;3.20;;
25905;SDS011;13713;52.552;13.204;2024-03-17T00:36:45;8.13;;;3.75;;
25905;SDS011;13713;52.552;13.204;2024-03-17T00:39:11;7.25;;;3.13;;
25905;SDS011;13713;52.552;13.204;2024-03-17T00:41:37;5.93;;;3.20;;
25905;SDS011;13713;52.552;13.204;2024-03-17T00:44:04;5.95;;;3.17;;
25905;SDS011;13713;52.552;13.204;2024-03-17T00:46:31;8.32;;;3.70;;
25905;SDS011;13713;52.552;13.204;2024-03-17T00:48:58;8.82;;;3.70;;
25905;SDS011;13713;52.552;13.204;2024-03-17T00:51:25;7.88;;;3.83;;
25905;SDS011;13713;52.552;13.204;2024-03-17T00:53:51;5.65;;;3.28;;
25905;SDS011;13713;52.552;13.204;2024-03-17T00:56:17;8.52;;;3.60;;
25905;SDS011;13713;52.552;13.204;2024-03-17T00:58:43;8.85;;;3.10;;
25905;SDS011;13713;52.552;13.204;2024-03-17T01:01:10;9.07;;;2.95;;
25905;SDS011;13713;52.552;13.204;2024-03-17T01:03:36;8.00;;;3.53;;
25905;SDS011;13713;52.552;13.204;2024-03-17T01:06:03;8.18;;;3.22;;
25905;SDS011;13713;52.552;13.204;2024-03-17T01:08:29;5.68;;;2.83;;
25905;SDS011;13713;52.552;13.204;2024-03-17T01:10:55;7.10;;;2.95;;
25905;SDS011;13713;52.552;13.204;2024-03-17T01:13:23;8.52;;;3.30;;
25905;SDS011;13713;52.552;13.204;2024-03-17T01:15:53;6.00;;;2.90;;
25905;SDS011;13713;52.552;13.204;2024-03-17T01:18:19;7.35;;;3.17;;
25905;SDS011;13713;52.552;13.204;2024-03-17T01:20:45;6.38;;;3.28;;
25905;SDS011;13713;52.552;13.204;2024-03-17T01:23:11;6.93;;;3.20;;
25905;SDS011;13713;52.552;13.204;2024-03-17T01:25:37;7.32;;;3.35;;
25905;SDS011;13713;52.552;13.204;2024-03-17T01:28:04;9.35;;;3.60;;
25905;SDS011;13713;52.552;13.204;2024-03-17T01:30:30;6.53;;;2.65;;
25905;SDS011;13713;52.552;13.204;2024-03-17T01:32:57;6.43;;;3.22;;
25905;SDS011;13713;52.552;13.204;2024-03-17T01:35:25;8.63;;;3.53;;
25905;SDS011;13713;52.552;13.204;2024-03-17T01:37:51;8.48;;;3.55;;
25905;SDS011;13713;52.552;13.204;2024-03-17T01:40:17;6.95;;;3.22;;
25905;SDS011;13713;52.552;13.204;2024-03-17T01:42:46;5.70;;;3.30;;
25905;SDS011;13713;52.552;13.204;2024-03-17T01:47:53;9.35;;;3.17;;
25905;SDS011;13713;52.552;13.204;2024-03-17T01:50:19;8.82;;;2.95;;
25905;SDS011;13713;52.552;13.204;2024-03-17T01:52:51;6.53;;;2.85;;
25905;SDS011;13713;52.552;13.204;2024-03-17T01:55:19;7.97;;;3.25;;
25905;SDS011;13713;52.552;13.204;2024-03-17T01:57:47;7.78;;;3.42;;
25905;SDS011;13713;52.552;13.204;2024-03-17T02:00:16;8.88;;;3.55;;
25905;SDS011;13713;52.552;13.204;2024-03-17T02:02:43;7.18;;;3.30;;
25905;SDS011;13713;52.552;13.204;2024-03-17T02:05:08;5.55;;;3.28;;
25905;SDS011;13713;52.552;13.204;2024-03-17T02:07:35;7.90;;;3.10;;
25905;SDS011;13713;52.552;13.204;2024-03-17T02:10:01;8.77;;;2.88;;
25905;SDS011;13713;52.552;13.204;2024-03-17T02:12:33;6.20;;;3.42;;
25905;SDS011;13713;52.552;13.204;2024-03-17T02:15:00;7.53;;;3.05;;
25905;SDS011;13713;52.552;13.204;2024-03-17T02:17:30;7.45;;;3.25;;
25905;SDS011;13713;52.552;13.204;2024-03-17T02:19:57;9.30;;;2.80;;
25905;SDS011;13713;52.552;13.204;2024-03-17T02:22:22;8.00;;;2.92;;
25905;SDS011;13713;52.552;13.204;2024-03-17T02:24:48;7.03;;;2.92;;
25905;SDS011;13713;52.552;13.204;2024-03-17T02:27:14;9.38;;;3.33;;
25905;SDS011;13713;52.552;13.204;2024-03-17T02:29:40;7.78;;;2.75;;
25905;SDS011;13713;52.552;13.204;2024-03-17T02:32:06;6.75;;;2.92;;
25905;SDS011;13713;52.552;13.204;2024-03-17T02:34:33;7.82;;;2.60;;
25905;SDS011;13713;52.552;13.204;2024-03-17T02:37:00;6.38;;;2.60;;
25905;SDS011;13713;52.552;13.204;2024-03-17T02:39:28;6.32;;;3.13;;
25905;SDS011;13713;52.552;13.204;2024-03-17T02:42:01;6.80;;;2.60;;
25905;SDS011;13713;52.552;13.204;2024-03-17T02:44:30;8.75;;;3.45;;
25905;SDS011;13713;52.552;13.204;2024-03-17T02:46:57;7.20;;;2.78;;
25905;SDS011;13713;52.552;13.204;2024-03-17T02:49:24;7.50;;;2.80;;
25905;SDS011;13713;52.552;13.204;2024-03-17T02:51:52;5.82;;;2.63;;
25905;SDS011;13713;52.552;13.204;2024-03-17T02:54:20;5.43;;;2.53;;
25905;SDS011;13713;52.552;13.204;2024-03-17T02:56:46;6.45;;;3.25;;
25905;SDS011;13713;52.552;13.204;2024-03-17T02:59:12;6.07;;;2.65;;
25905;SDS011;13713;52.552;13.204;2024-03-17T03:01:38;6.15;;;3.00;;
25905;SDS011;13713;52.552;13.204;2024-03-17T03:04:05;5.90;;;2.90;;
25905;SDS011;13713;52.552;13.204;2024-03-17T03:06:31;6.38;;;2.53;;
25905;SDS011;13713;52.552;13.204;2024-03-17T03:08:58;8.00;;;3.85;;
25905;SDS011;13713;52.552;13.204;2024-03-17T03:11:24;8.07;;;3.22;;
25905;SDS011;13713;52.552;13.204;2024-03-17T03:13:50;8.18;;;3.08;;
25905;SDS011;13713;52.552;13.204;2024-03-17T03:16:16;5.75;;;2.50;;
25905;SDS011;13713;52.552;13.204;2024-03-17T03:18:44;6.78;;;2.85;;
25905;SDS011;13713;52.552;13.204;2024-03-17T03:21:10;6.95;;;2.60;;
25905;SDS011;13713;52.552;13.204;2024-03-17T03:23:37;6.82;;;2.50;;
25905;SDS011;13713;52.552;13.204;2024-03-17T03:26:03;7.47;;;2.72;;
25905;SDS011;13713;52.552;13.204;2024-03-17T03:28:32;7.32;;;2.75;;
25905;SDS011;13713;52.552;13.204;2024-03-17T03:31:04;9.57;;;3.05;;
25905;SDS011;13713;52.552;13.204;2024-03-17T03:33:31;7.43;;;2.78;;
25905;SDS011;13713;52.552;13.204;2024-03-17T03:35:57;8.63;;;2.75;;
25905;SDS011;13713;52.552;13.204;2024-03-17T03:38:23;7.90;;;2.92;;
25905;SDS011;13713;52.552;13.204;2024-03-17T03:40:49;7.93;;;3.05;;
25905;SDS011;13713;52.552;13.204;2024-03-17T03:43:15;7.65;;;2.88;;
25905;SDS011;13713;52.552;13.204;2024-03-17T03:45:40;6.05;;;2.65;;
25905;SDS011;13713;52.552;13.204;2024-03-17T03:48:07;8.90;;;3.17;;
25905;SDS011;13713;52.552;13.204;2024-03-17T03:50:36;6.88;;;2.58;;
25905;SDS011;13713;52.552;13.204;2024-03-17T03:53:03;6.07;;;2.22;;
25905;SDS011;13713;52.552;13.204;2024-03-17T03:55:30;6.20;;;2.40;;
25905;SDS011;13713;52.552;13.204;2024-03-17T03:57:56;6.13;;;2.72;;
25905;SDS011;13713;52.552;13.204;2024-03-17T04:00:22;7.32;;;2.47;;
25905;SDS011;13713;52.552;13.204;2024-03-17T04:02:49;9.73;;;2.97;;
25905;SDS011;13713;52.552;13.204;2024-03-17T04:05:16;5.90;;;2.88;;
25905;SDS011;13713;52.552;13.204;2024-03-17T04:07:43;7.18;;;2.70;;
25905;SDS011;13713;52.552;13.204;2024-03-17T04:10:11;8.30;;;2.90;;
25905;SDS011;13713;52.552;13.204;2024-03-17T04:12:38;7.22;;;2.47;;
25905;SDS011;13713;52.552;13.204;2024-03-17T04:15:04;6.80;;;2.60;;
25905;SDS011;13713;52.552;13.204;2024-03-17T04:17:31;8.10;;;2.63;;
25905;SDS011;13713;52.552;13.204;2024-03-17T04:19:58;7.90;;;2.70;;
25905;SDS011;13713;52.552;13.204;2024-03-17T04:22:24;6.53;;;2.30;;
25905;SDS011;13713;52.552;13.204;2024-03-17T04:24:50;7.95;;;2.83;;
25905;SDS011;13713;52.552;13.204;2024-03-17T04:27:20;6.78;;;2.60;;
25905;SDS011;13713;52.552;13.204;2024-03-17T04:29:46;5.63;;;2.47;;
25905;SDS011;13713;52.552;13.204;2024-03-17T04:32:13;5.88;;;2.10;;
25905;SDS011;13713;52.552;13.204;2024-03-17T04:34:39;5.70;;;2.25;;
25905;SDS011;13713;52.552;13.204;2024-03-17T04:37:05;7.97;;;3.28;;
25905;SDS011;13713;52.552;13.204;2024-03-17T04:39:31;8.40;;;2.33;;
25905;SDS011;13713;52.552;13.204;2024-03-17T04:41:57;5.53;;;2.40;;
25905;SDS011;13713;52.552;13.204;2024-03-17T04:44:22;7.97;;;2.55;;
25905;SDS011;13713;52.552;13.204;2024-03-17T04:46:48;7.18;;;2.70;;
25905;SDS011;13713;52.552;13.204;2024-03-17T04:49:14;8.25;;;2.83;;
25905;SDS011;13713;52.552;13.204;2024-03-17T04:51:40;6.00;;;2.80;;
25905;SDS011;13713;52.552;13.204;2024-03-17T04:54:06;8.82;;;2.80;;
25905;SDS011;13713;52.552;13.204;2024-03-17T04:56:32;6.60;;;2.75;;
25905;SDS011;13713;52.552;13.204;2024-03-17T04:58:58;8.43;;;2.40;;
25905;SDS011;13713;52.552;13.204;2024-03-17T05:01:24;7.75;;;2.58;;
25905;SDS011;13713;52.552;13.204;2024-03-17T05:03:53;6.30;;;2.45;;
25905;SDS011;13713;52.552;13.204;2024-03-17T05:06:19;7.70;;;2.33;;
25905;SDS011;13713;52.552;13.204;2024-03-17T05:08:45;5.75;;;2.72;;
25905;SDS011;13713;52.552;13.204;2024-03-17T05:11:11;5.47;;;2.33;;
25905;SDS011;13713;52.552;13.204;2024-03-17T05:13:37;6.97;;;2.67;;
25905;SDS011;13713;52.552;13.204;2024-03-17T05:16:03;10.45;;;3.00;;
25905;SDS011;13713;52.552;13.204;2024-03-17T05:18:30;6.60;;;2.17;;
25905;SDS011;13713;52.552;13.204;2024-03-17T05:21:07;5.15;;;2.35;;
25905;SDS011;13713;52.552;13.204;2024-03-17T05:23:34;7.10;;;2.30;;
25905;SDS011;13713;52.552;13.204;2024-03-17T05:26:02;7.57;;;2.30;;
25905;SDS011;13713;52.552;13.204;2024-03-17T05:28:31;5.82;;;2.40;;
25905;SDS011;13713;52.552;13.204;2024-03-17T05:30:57;5.93;;;2.55;;
25905;SDS011;13713;52.552;13.204;2024-03-17T05:33:26;7.28;;;2.38;;
25905;SDS011;13713;52.552;13.204;2024-03-17T05:35:56;7.32;;;2.58;;
25905;SDS011;13713;52.552;13.204;2024-03-17T05:38:24;5.45;;;2.20;;
25905;SDS011;13713;52.552;13.204;2024-03-17T05:43:30;6.45;;;2.50;;
25905;SDS011;13713;52.552;13.204;2024-03-17T05:46:01;9.20;;;2.90;;
25905;SDS011;13713;52.552;13.204;2024-03-17T05:48:31;5.13;;;2.55;;
25905;SDS011;13713;52.552;13.204;2024-03-17T05:50:58;5.90;;;2.38;;
25905;SDS011;13713;52.552;13.204;2024-03-17T05:53:28;7.10;;;2.53;;
25905;SDS011;13713;52.552;13.204;2024-03-17T05:55:53;6.88;;;2.13;;
25905;SDS011;13713;52.552;13.204;2024-03-17T05:58:20;6.25;;;2.13;;
25905;SDS011;13713;52.552;13.204;2024-03-17T06:00:46;6.95;;;2.42;;
25905;SDS011;13713;52.552;13.204;2024-03-17T06:03:12;5.78;;;2.22;;
25905;SDS011;13713;52.552;13.204;2024-03-17T06:05:39;4.93;;;2.08;;
25905;SDS011;13713;52.552;13.204;2024-03-17T06:08:08;8.00;;;2.60;;
25905;SDS011;13713;52.552;13.204;2024-03-17T06:10:35;10.25;;;2.60;;
25905;SDS011;13713;52.552;13.204;2024-03-17T06:13:02;5.93;;;2.17;;
25905;SDS011;13713;52.552;13.204;2024-03-17T06:15:29;6.32;;;2.30;;
25905;SDS011;13713;52.552;13.204;2024-03-17T06:17:55;7.50;;;2.20;;
25905;SDS011;13713;52.552;13.204;2024-03-17T06:20:21;4.38;;;1.88;;
25905;SDS011;13713;52.552;13.204;2024-03-17T06:22:49;9.25;;;2.40;;
25905;SDS011;13713;52.552;13.204;2024-03-17T06:25:15;7.93;;;2.47;;
25905;SDS011;13713;52.552;13.204;2024-03-17T06:27:41;6.10;;;2.00;;
25905;SDS011;13713;52.552;13.204;2024-03-17T06:30:16;6.68;;;2.17;;
25905;SDS011;13713;52.552;13.204;2024-03-17T06:32:43;6.63;;;2.00;;
25905;SDS011;13713;52.552;13.204;2024-03-17T06:35:13;7.50;;;2.38;;
25905;SDS011;13713;52.552;13.204;2024-03-17T06:37:43;6.53;;;2.58;;
25905;SDS011;13713;52.552;13.204;2024-03-17T06:40:14;7.50;;;2.10;;
25905;SDS011;13713;52.552;13.204;2024-03-17T06:42:40;4.70;;;1.98;;
25905;SDS011;13713;52.552;13.204;2024-03-17T06:45:06;8.25;;;2.13;;
25905;SDS011;13713;52.552;13.204;2024-03-17T06:47:38;6.30;;;2.35;;
25905;SDS011;13713;52.552;13.204;2024-03-17T06:50:05;7.00;;;2.08;;
25905;SDS011;13713;52.552;13.204;2024-03-17T06:52:35;5.75;;;1.88;;
25905;SDS011;13713;52.552;13.204;2024-03-17T06:55:01;7.65;;;2.50;;
25905;SDS011;13713;52.552;13.204;2024-03-17T06:57:27;3.95;;;1.90;;
25905;SDS011;13713;52.552;13.204;2024-03-17T06:59:53;7.40;;;2.78;;
25905;SDS011;13713;52.552;13.204;2024-03-17T07:02:19;7.18;;;1.88;;
25905;SDS011;13713;52.552;13.204;2024-03-17T07:04:48;5.85;;;2.10;;
25905;SDS011;13713;52.552;13.204;2024-03-17T07:07:14;7.75;;;2.58;;
25905;SDS011;13713;52.552;13.204;2024-03-17T07:09:40;9.10;;;2.35;;
25905;SDS011;13713;52.552;13.204;2024-03-17T07:12:09;6.18;;;2.40;;
25905;SDS011;13713;52.552;13.204;2024-03-17T07:14:36;5.93;;;2.28;;
25905;SDS011;13713;52.552;13.204;2024-03-17T07:17:02;6.85;;;2.00;;
25905;SDS011;13713;52.552;13.204;2024-03-17T07:19:29;7.22;;;1.98;;
25905;SDS011;13713;52.552;13.204;2024-03-17T07:21:56;8.20;;;2.58;;
25905;SDS011;13713;52.552;13.204;2024-03-17T07:24:22;7.13;;;2.10;;
25905;SDS011;13713;52.552;13.204;2024-03-17T07:26:49;6.88;;;2.08;;
25905;SDS011;13713;52.552;13.204;2024-03-17T07:29:15;5.57;;;1.85;;
25905;SDS011;13713;52.552;13.204;2024-03-17T07:31:41;6.90;;;2.47;;
25905;SDS011;13713;52.552;13.204;2024-03-17T07:34:07;7.45;;;2.13;;
25905;SDS011;13713;52.552;13.204;2024-03-17T07:36:34;6.78;;;2.40;;
25905;SDS011;13713;52.552;13.204;2024-03-17T07:38:59;6.38;;;2.00;;
25905;SDS011;13713;52.552;13.204;2024-03-17T07:41:25;7.95;;;2.20;;
25905;SDS011;13713;52.552;13.204;2024-03-17T07:43:51;5.03;;;1.80;;
25905;SDS011;13713;52.552;13.204;2024-03-17T07:46:17;8.88;;;2.45;;
25905;SDS011;13713;52.552;13.204;2024-03-17T07:48:44;6.28;;;2.05;;
25905;SDS011;13713;52.552;13.204;2024-03-17T07:51:11;7.53;;;2.15;;
25905;SDS011;13713;52.552;13.204;2024-03-17T07:53:39;10.23;;;2.88;;
25905;SDS011;13713;52.552;13.204;2024-03-17T07:56:07;8.52;;;2.05;;
25905;SDS011;13713;52.552;13.204;2024-03-17T07:58:37;7.97;;;2.53;;
25905;SDS011;13713;52.552;13.204;2024-03-17T08:01:08;8.80;;;2.40;;
25905;SDS011;13713;52.552;13.204;2024-03-17T08:03:45;7.88;;;2.60;;
25905;SDS011;13713;52.552;13.204;2024-03-17T08:06:14;7.22;;;2.67;;
25905;SDS011;13713;52.552;13.204;2024-03-17T08:08:40;7.90;;;2.55;;
25905;SDS011;13713;52.552;13.204;2024-03-17T08:11:06;8.05;;;2.47;;
25905;SDS011;13713;52.552;13.204;2024-03-17T08:13:32;9.35;;;2.40;;
25905;SDS011;13713;52.552;13.204;2024-03-17T08:16:03;7.78;;;3.08;;
25905;SDS011;13713;52.552;13.204;2024-03-17T08:18:31;7.82;;;2.60;;
25905;SDS011;13713;52.552;13.204;2024-03-17T08:20:59;8.60;;;2.50;;
25905;SDS011;13713;52.552;13.204;2024-03-17T08:23:32;6.47;;;2.17;;
25905;SDS011;13713;52.552;13.204;2024-03-17T08:26:01;8.70;;;2.30;;
25905;SDS011;13713;52.552;13.204;2024-03-17T08:28:27;6.10;;;2.25;;
25905;SDS011;13713;52.552;13.204;2024-03-17T08:30:54;5.13;;;1.75;;
25905;SDS011;13713;52.552;13.204;2024-03-17T08:33:21;6.78;;;2.20;;
25905;SDS011;13713;52.552;13.204;2024-03-17T08:38:28;7.18;;;2.20;;
25905;SDS011;13713;52.552;13.204;2024-03-17T08:40:55;8.60;;;2.08;;
25905;SDS011;13713;52.552;13.204;2024-03-17T08:43:21;6.18;;;2.10;;
25905;SDS011;13713;52.552;13.204;2024-03-17T08:46:01;8.27;;;2.67;;
25905;SDS011;13713;52.552;13.204;2024-03-17T08:48:29;7.32;;;2.30;;
25905;SDS011;13713;52.552;13.204;2024-03-17T08:50:56;8.63;;;2.05;;
25905;SDS011;13713;52.552;13.204;2024-03-17T08:53:23;6.35;;;2.22;;
25905;SDS011;13713;52.552;13.204;2024-03-17T08:55:49;6.80;;;2.28;;
25905;SDS011;13713;52.552;13.204;2024-03-17T08:58:15;6.20;;;2.10;;
25905;SDS011;13713;52.552;13.204;2024-03-17T09:00:42;7.63;;;2.35;;
25905;SDS011;13713;52.552;13.204;2024-03-17T09:03:11;8.77;;;2.30;;
25905;SDS011;13713;52.552;13.204;2024-03-17T09:05:41;7.35;;;2.03;;
25905;SDS011;13713;52.552;13.204;2024-03-17T09:08:19;5.82;;;2.35;;
25905;SDS011;13713;52.552;13.204;2024-03-17T09:10:48;7.20;;;2.33;;
25905;SDS011;13713;52.552;13.204;2024-03-17T09:13:24;6.47;;;1.75;;
25905;SDS011;13713;52.552;13.204;2024-03-17T09:15:58;5.38;;;1.83;;
25905;SDS011;13713;52.552;13.204;2024-03-17T09:18:25;9.10;;;1.90;;
25905;SDS011;13713;52.552;13.204;2024-03-17T09:20:56;7.00;;;2.45;;
25905;SDS011;13713;52.552;13.204;2024-03-17T09:23:25;6.13;;;2.17;;
25905;SDS011;13713;52.552;13.204;2024-03-17T09:25:58;4.95;;;1.70;;
25905;SDS011;13713;52.552;13.204;2024-03-17T09:28:26;6.22;;;2.00;;
25905;SDS011;13713;52.552;13.204;2024-03-17T09:30:53;8.00;;;2.40;;
25905;SDS011;13713;52.552;13.204;2024-03-17T09:33:20;5.72;;;2.03;;
25905;SDS011;13713;52.552;13.204;2024-03-17T09:35:56;5.85;;;2.17;;
25905;SDS011;13713;52.552;13.204;2024-03-17T09:38:24;7.68;;;2.40;;
25905;SDS011;13713;52.552;13.204;2024-03-17T09:40:50;6.88;;;2.35;;
25905;SDS011;13713;52.552;13.204;2024-03-17T09:43:21;5.72;;;1.70;;
25905;SDS011;13713;52.552;13.204;2024-03-17T09:45:48;6.68;;;2.25;;
25905;SDS011;13713;52.552;13.204;2024-03-17T09:48:16;7.00;;;2.53;;
25905;SDS011;13713;52.552;13.204;2024-03-17T09:50:50;6.05;;;2.42;;
25905;SDS011;13713;52.552;13.204;2024-03-17T09:53:23;9.00;;;2.67;;
25905;SDS011;13713;52.552;13.204;2024-03-17T09:58:44;8.13;;;2.38;;
25905;SDS011;13713;52.552;13.204;2024-03-17T10:01:14;6.13;;;2.08;;
25905;SDS011;13713;52.552;13.204;2024-03-17T10:03:41;5.72;;;2.40;;
25905;SDS011;13713;52.552;13.204;2024-03-17T10:06:15;6.90;;;2.28;;
25905;SDS011;13713;52.552;13.204;2024-03-17T10:08:42;5.43;;;1.83;;
25905;SDS011;13713;52.552;13.204;2024-03-17T10:11:09;7.03;;;2.38;;
25905;SDS011;13713;52.552;13.204;2024-03-17T10:13:36;5.65;;;2.20;;
25905;SDS011;13713;52.552;13.204;2024-03-17T10:16:03;8.38;;;2.17;;
25905;SDS011;13713;52.552;13.204;2024-03-17T10:18:29;4.30;;;1.85;;
25905;SDS011;13713;52.552;13.204;2024-03-17T10:20:56;6.93;;;2.53;;
25905;SDS011;13713;52.552;13.204;2024-03-17T10:23:24;6.05;;;2.00;;
25905;SDS011;13713;52.552;13.204;2024-03-17T10:25:50;5.82;;;2.00;;
25905;SDS011;13713;52.552;13.204;2024-03-17T10:28:17;7.28;;;2.15;;
25905;SDS011;13713;52.552;13.204;2024-03-17T10:30:58;4.90;;;2.08;;
25905;SDS011;13713;52.552;13.204;2024-03-17T10:33:25;3.80;;;1.90;;
25905;SDS011;13713;52.552;13.204;2024-03-17T10:35:58;6.57;;;2.10;;
25905;SDS011;13713;52.552;13.204;2024-03-17T10:38:30;6.15;;;2.08;;
25905;SDS011;13713;52.552;13.204;2024-03-17T10:40:56;5.63;;;2.22;;
25905;SDS011;13713;52.552;13.204;2024-03-17T10:43:22;7.57;;;2.15;;
25905;SDS011;13713;52.552;13.204;2024-03-17T10:45:53;4.72;;;2.03;;
25905;SDS011;13713;52.552;13.204;2024-03-17T10:48:21;5.40;;;2.22;;
25905;SDS011;13713;52.552;13.204;2024-03-17T10:50:52;7.25;;;1.98;;
25905;SDS011;13713;52.552;13.204;2024-03-17T10:53:21;4.18;;;1.90;;
25905;SDS011;13713;52.552;13.204;2024-03-17T10:56:03;8.52;;;2.30;;
25905;SDS011;13713;52.552;13.204;2024-03-17T10:58:38;7.25;;;2.28;;
25905;SDS011;13713;52.552;13.204;2024-03-17T11:01:15;4.53;;;2.08;;
25905;SDS011;13713;52.552;13.204;2024-03-17T11:03:41;6.00;;;2.05;;
25905;SDS011;13713;52.552;13.204;2024-03-17T11:06:09;7.97;;;2.88;;
25905;SDS011;13713;52.552;13.204;2024-03-17T11:08:35;5.68;;;2.30;;
25905;SDS011;13713;52.552;13.204;2024-03-17T11:11:02;7.20;;;2.10;;
25905;SDS011;13713;52.552;13.204;2024-03-17T11:13:29;6.45;;;2.20;;
25905;SDS011;13713;52.552;13.204;2024-03-17T11:15:57;5.78;;;2.30;;
25905;SDS011;13713;52.552;13.204;2024-03-17T11:18:36;7.35;;;2.00;;
25905;SDS011;13713;52.552;13.204;2024-03-17T11:23:40;5.38;;;2.10;;
25905;SDS011;13713;52.552;13.204;2024-03-17T11:26:06;7.82;;;2.60;;
25905;SDS011;13713;52.552;13.204;2024-03-17T11:33:58;4.93;;;2.28;;
25905;SDS011;13713;52.552;13.204;2024-03-17T11:38:58;5.05;;;2.00;;
25905;SDS011;13713;52.552;13.204;2024-03-17T11:51:52;6.57;;;2.05;;
25905;SDS011;13713;52.552;13.204;2024-03-17T11:54:20;6.88;;;2.42;;
25905;SDS011;13713;52.552;13.204;2024-03-17T11:56:49;5.03;;;2.08;;
25905;SDS011;13713;52.552;13.204;2024-03-17T11:59:19;5.47;;;2.15;;
25905;SDS011;13713;52.552;13.204;2024-03-17T12:01:46;5.65;;;2.00;;
25905;SDS011;13713;52.552;13.204;2024-03-17T12:04:16;6.43;;;2.20;;
25905;SDS011;13713;52.552;13.204;2024-03-17T12:06:46;3.83;;;1.83;;
25905;SDS011;13713;52.552;13.204;2024-03-17T12:12:02;6.20;;;2.20;;
25905;SDS011;13713;52.552;13.204;2024-03-17T12:14:30;5.47;;;1.95;;
25905;SDS011;13713;52.552;13.204;2024-03-17T12:16:59;6.45;;;2.22;;
25905;SDS011;13713;52.552;13.204;2024-03-17T12:19:32;5.57;;;2.03;;
25905;SDS011;13713;52.552;13.204;2024-03-17T12:22:00;5.70;;;2.30;;
25905;SDS011;13713;52.552;13.204;2024-03-17T12:24:27;5.47;;;2.22;;
25905;SDS011;13713;52.552;13.204;2024-03-17T12:26:57;6.40;;;2.07;;
25905;SDS011;13713;52.552;13.204;2024-03-17T12:32:10;6.60;;;2.58;;
25905;SDS011;13713;52.552;13.204;2024-03-17T12:34:43;9.18;;;2.58;;
25905;SDS011;13713;52.552;13.204;2024-03-17T12:39:51;6.07;;;2.38;;
25905;SDS011;13713;52.552;13.204;2024-03-17T12:42:28;6.72;;;2.55;;
25905;SDS011;13713;52.552;13.204;2024-03-17T12:44:58;8.38;;;2.70;;
25905;SDS011;13713;52.552;13.204;2024-03-17T12:47:27;6.35;;;2.70;;
25905;SDS011;13713;52.552;13.204;2024-03-17T12:49:54;4.82;;;2.10;;
25905;SDS011;13713;52.552;13.204;2024-03-17T12:52:30;5.95;;;2.20;;
25905;SDS011;13713;52.552;13.204;2024-03-17T12:55:05;6.80;;;3.15;;
25905;SDS011;13713;52.552;13.204;2024-03-17T13:00:56;6.20;;;2.50;;
25905;SDS011;13713;52.552;13.204;2024-03-17T13:03:27;5.47;;;2.25;;
25905;SDS011;13713;52.552;13.204;2024-03-17T13:05:58;6.20;;;2.50;;
25905;SDS011;13713;52.552;13.204;2024-03-17T13:08:24;4.47;;;2.35;;
25905;SDS011;13713;52.552;13.204;2024-03-17T13:10:50;5.80;;;2.65;;
25905;SDS011;13713;52.552;13.204;2024-03-17T13:13:16;9.10;;;2.40;;
25905;SDS011;13713;52.552;13.204;2024-03-17T13:15:42;5.88;;;2.83;;
25905;SDS011;13713;52.552;13.204;2024-03-17T13:18:11;5.03;;;2.45;;
25905;SDS011;13713;52.552;13.204;2024-03-17T13:20:43;6.75;;;2.70;;
25905;SDS011;13713;52.552;13.204;2024-03-17T13:23:10;5.60;;;2.30;;
25905;SDS011;13713;52.552;13.204;2024-03-17T13:25:37;7.57;;;2.70;;
25905;SDS011;13713;52.552;13.204;2024-03-17T13:28:04;6.53;;;2.55;;
25905;SDS011;13713;52.552;13.204;2024-03-17T13:30:32;6.97;;;2.40;;
25905;SDS011;13713;52.552;13.204;2024-03-17T13:33:01;6.05;;;2.30;;
25905;SDS011;13713;52.552;13.204;2024-03-17T13:35:30;5.97;;;2.60;;
25905;SDS011;13713;52.552;13.204;2024-03-17T13:37:56;6.07;;;2.75;;
25905;SDS011;13713;52.552;13.204;2024-03-17T13:40:26;6.07;;;2.42;;
25905;SDS011;13713;52.552;13.204;2024-03-17T13:42:53;8.10;;;2.67;;
25905;SDS011;13713;52.552;13.204;2024-03-17T13:45:21;7.82;;;2.47;;
25905;SDS011;13713;52.552;13.204;2024-03-17T13:47:52;6.50;;;2.17;;
25905;SDS011;13713;52.552;13.204;2024-03-17T13:50:22;7.82;;;2.60;;
25905;SDS011;13713;52.552;13.204;2024-03-17T13:52:48;6.43;;;2.78;;
25905;SDS011;13713;52.552;13.204;2024-03-17T13:55:19;6.25;;;2.03;;
25905;SDS011;13713;52.552;13.204;2024-03-17T13:57:55;3.53;;;2.00;;
25905;SDS011;13713;52.552;13.204;2024-03-17T14:00:25;7.00;;;2.42;;
25905;SDS011;13713;52.552;13.204;2024-03-17T14:02:53;6.03;;;2.58;;
25905;SDS011;13713;52.552;13.204;2024-03-17T14:05:21;4.85;;;2.15;;
25905;SDS011;13713;52.552;13.204;2024-03-17T14:07:49;4.72;;;2.30;;
25905;SDS011;13713;52.552;13.204;2024-03-17T14:10:17;6.38;;;2.33;;
25905;SDS011;13713;52.552;13.204;2024-03-17T14:12:45;5.88;;;2.30;;
25905;SDS011;13713;52.552;13.204;2024-03-17T14:15:11;6.55;;;2.70;;
25905;SDS011;13713;52.552;13.204;2024-03-17T14:17:39;5.55;;;2.63;;
25905;SDS011;13713;52.552;13.204;2024-03-17T14:20:06;4.93;;;2.50;;
25905;SDS011;13713;52.552;13.204;2024-03-17T14:22:38;5.43;;;2.22;;
25905;SDS011;13713;52.552;13.204;2024-03-17T14:25:09;6.65;;;2.67;;
25905;SDS011;13713;52.552;13.204;2024-03-17T14:27:37;5.18;;;2.20;;
25905;SDS011;13713;52.552;13.204;2024-03-17T14:30:04;7.05;;;2.92;;
25905;SDS011;13713;52.552;13.204;2024-03-17T14:32:31;8.20;;;2.70;;
25905;SDS011;13713;52.552;13.204;2024-03-17T14:34:57;7.00;;;2.72;;
25905;SDS011;13713;52.552;13.204;2024-03-17T14:37:22;4.13;;;2.17;;
25905;SDS011;13713;52.552;13.204;2024-03-17T14:39:52;5.30;;;2.05;;
25905;SDS011;13713;52.552;13.204;2024-03-17T14:42:20;6.63;;;2.50;;
25905;SDS011;13713;52.552;13.204;2024-03-17T14:44:46;6.07;;;2.78;;
25905;SDS011;13713;52.552;13.204;2024-03-17T14:47:12;5.05;;;2.30;;
25905;SDS011;13713;52.552;13.204;2024-03-17T14:49:39;5.97;;;2.65;;
25905;SDS011;13713;52.552;13.204;2024-03-17T14:52:04;6.13;;;2.65;;
25905;SDS011;13713;52.552;13.204;2024-03-17T14:54:31;5.82;;;2.55;;
25905;SDS011;13713;52.552;13.204;2024-03-17T14:56:57;6.88;;;2.35;;
25905;SDS011;13713;52.552;13.204;2024-03-17T14:59:23;6.18;;;2.47;;
25905;SDS011;13713;52.552;13.204;2024-03-17T15:01:49;3.60;;;2.28;;
25905;SDS011;13713;52.552;13.204;2024-03-17T15:04:14;8.85;;;2.60;;
25905;SDS011;13713;52.552;13.204;2024-03-17T15:06:41;8.20;;;2.55;;
25905;SDS011;13713;52.552;13.204;2024-03-17T15:09:10;6.80;;;2.42;;
25905;SDS011;13713;52.552;13.204;2024-03-17T15:11:37;5.30;;;2.25;;
25905;SDS011;13713;52.552;13.204;2024-03-17T15:14:03;4.53;;;2.20;;
25905;SDS011;13713;52.552;13.204;2024-03-17T15:16:33;4.18;;;2.40;;
25905;SDS011;13713;52.552;13.204;2024-03-17T15:18:59;5.03;;;2.47;;
25905;SDS011;13713;52.552;13.204;2024-03-17T15:21:25;4.38;;;1.98;;